Time;durP1;ratioP1;P1;durP2;ratioP2;P2;SDS_P1;SDS_P2;PMS_P1;PMS_P2;Temp;Humidity;BMP_temperature;BMP_pressure;BME280_temperature;BME280_humidity;BME280_pressure;Samples;Min_cycle;Max_cycle;Signal;HPM_P1;HPM_P2
2022/07/15 00:00:54;;;;;;;7.82;4.60;;;;;;;17.29;73.83;98830.53;5020389;28;20453;-77
2022/07/15 00:03:20;;;;;;;6.65;4.45;;;;;;;17.30;73.72;98827.81;4993004;28;20048;-77
2022/07/15 00:05:47;;;;;;;6.90;4.20;;;;;;;17.32;73.80;98814.63;5005398;28;20662;-79
2022/07/15 00:08:13;;;;;;;11.52;4.28;;;;;;;17.40;73.68;98817.66;5008766;28;20101;-80
2022/07/15 00:10:39;;;;;;;7.35;4.45;;;;;;;17.41;73.48;98824.63;5006216;28;20049;-78
2022/07/15 00:13:05;;;;;;;5.18;3.97;;;;;;;17.42;73.46;98820.25;5002392;28;20051;-79
2022/07/15 00:15:32;;;;;;;5.55;4.20;;;;;;;17.32;73.58;98817.25;5003376;28;20106;-78
2022/07/15 00:18:03;;;;;;;5.80;4.25;;;;;;;17.34;73.50;98828.50;5003244;28;20041;-78
2022/07/15 00:20:33;;;;;;;6.38;4.10;;;;;;;17.33;73.35;98829.44;5019189;28;20076;-78
2022/07/15 00:23:04;;;;;;;4.90;3.80;;;;;;;17.25;73.46;98821.13;5002266;28;20045;-78
2022/07/15 00:25:30;;;;;;;3.97;3.65;;;;;;;17.29;73.44;98835.81;4987505;28;20042;-78
2022/07/15 00:28:05;;;;;;;6.28;3.65;;;;;;;17.28;73.67;98842.00;4989834;28;20091;-78
2022/07/15 00:30:33;;;;;;;4.40;3.60;;;;;;;17.22;73.70;98839.66;4990460;28;20072;-80
2022/07/15 00:33:00;;;;;;;5.38;3.40;;;;;;;17.24;73.70;98845.69;5036275;28;20038;-78
2022/07/15 00:35:27;;;;;;;4.75;3.38;;;;;;;17.23;73.53;98841.38;5006961;28;20054;-79
2022/07/15 00:37:54;;;;;;;3.13;2.83;;;;;;;17.20;73.57;98836.25;5030665;28;20033;-80
2022/07/15 00:40:21;;;;;;;3.42;3.13;;;;;;;17.11;73.64;98827.91;4987277;28;20098;-78
2022/07/15 00:42:47;;;;;;;4.22;3.00;;;;;;;17.24;73.37;98843.06;4973562;28;20045;-78
2022/07/15 00:45:21;;;;;;;4.05;3.03;;;;;;;17.28;73.78;98844.63;5020188;28;20046;-80
2022/07/15 00:47:51;;;;;;;3.20;2.88;;;;;;;17.29;73.72;98839.25;5019925;28;20037;-80
2022/07/15 00:50:18;;;;;;;5.50;3.15;;;;;;;17.28;73.39;98829.69;5020065;28;20186;-77
2022/07/15 00:52:50;;;;;;;3.63;3.00;;;;;;;17.36;73.50;98846.84;5012798;28;20041;-78
2022/07/15 00:55:17;;;;;;;3.13;2.70;;;;;;;17.29;73.35;98830.53;5020579;28;20571;-78
2022/07/15 00:57:45;;;;;;;3.15;2.85;;;;;;;17.33;73.34;98839.94;5008796;28;21197;-79
2022/07/15 01:00:13;;;;;;;3.42;2.60;;;;;;;17.28;73.24;98823.59;4990722;28;20045;-83
2022/07/15 01:02:43;;;;;;;4.88;4.38;;;;;;;17.35;73.27;98832.00;4991409;28;20093;-79
2022/07/15 01:05:11;;;;;;;3.40;3.10;;;;;;;17.39;73.26;98844.06;5004455;28;20053;-81
2022/07/15 01:07:40;;;;;;;2.55;2.35;;;;;;;17.37;73.19;98843.28;5007198;28;20037;-79
2022/07/15 01:10:08;;;;;;;3.40;2.88;;;;;;;17.39;72.93;98839.63;5006110;28;20033;-79
2022/07/15 01:12:37;;;;;;;3.03;2.83;;;;;;;17.46;72.83;98846.28;4988114;28;20043;-77
2022/07/15 01:15:05;;;;;;;4.13;2.72;;;;;;;17.45;72.97;98852.47;5000980;28;21125;-80
2022/07/15 01:17:32;;;;;;;3.78;3.00;;;;;;;17.46;72.81;98848.91;5007045;28;20048;-78
2022/07/15 01:19:59;;;;;;;2.70;2.50;;;;;;;17.45;72.59;98859.50;4973504;28;20049;-78
2022/07/15 01:22:29;;;;;;;3.13;2.60;;;;;;;17.45;72.70;98852.47;5005224;28;20038;-79
2022/07/15 01:24:55;;;;;;;6.95;3.00;;;;;;;17.47;72.47;98865.53;5021597;28;20046;-78
2022/07/15 01:27:26;;;;;;;3.67;2.50;;;;;;;17.38;72.44;98869.47;4989932;28;20234;-79
2022/07/15 01:29:52;;;;;;;4.40;2.78;;;;;;;17.39;72.60;98879.06;5023202;28;20052;-80
2022/07/15 01:32:21;;;;;;;4.40;2.67;;;;;;;17.29;72.30;98864.72;5005910;28;20091;-77
2022/07/15 01:34:48;;;;;;;3.05;2.75;;;;;;;17.17;72.47;98867.03;4992078;28;20140;-79
2022/07/15 01:37:16;;;;;;;2.92;2.72;;;;;;;17.20;72.34;98879.19;5005085;28;20037;-77
2022/07/15 01:39:47;;;;;;;3.08;2.78;;;;;;;17.23;72.49;98896.56;5007317;28;20587;-80
2022/07/15 01:42:13;;;;;;;3.75;2.88;;;;;;;17.10;72.72;98888.44;5005511;28;20493;-79
2022/07/15 01:44:40;;;;;;;3.42;3.13;;;;;;;17.17;72.64;98885.44;5008983;28;20137;-80
2022/07/15 01:47:06;;;;;;;6.45;2.72;;;;;;;17.21;72.67;98885.28;5009688;28;20037;-78
2022/07/15 01:49:34;;;;;;;4.63;2.70;;;;;;;17.20;72.77;98881.81;5010834;28;20038;-79
2022/07/15 01:52:10;;;;;;;3.13;2.70;;;;;;;17.28;72.75;98892.78;5008550;28;20044;-79
2022/07/15 01:54:37;;;;;;;2.75;2.50;;;;;;;17.31;72.79;98886.53;4996384;28;20036;-79
2022/07/15 01:57:04;;;;;;;4.32;3.15;;;;;;;17.38;72.66;98895.78;5004087;28;20119;-80
2022/07/15 01:59:35;;;;;;;4.00;2.92;;;;;;;17.39;72.64;98899.28;5026566;28;20048;-80
2022/07/15 02:02:02;;;;;;;7.38;3.33;;;;;;;17.40;72.87;98896.56;5004270;28;20077;-79
2022/07/15 02:04:28;;;;;;;5.90;3.38;;;;;;;17.44;72.62;98900.72;4990359;28;20042;-77
2022/07/15 02:06:54;;;;;;;6.13;3.28;;;;;;;17.45;72.62;98894.53;5006102;28;20045;-80
2022/07/15 02:09:21;;;;;;;6.13;3.30;;;;;;;17.40;72.89;98896.56;5010903;28;20072;-78
2022/07/15 02:11:50;;;;;;;6.38;2.83;;;;;;;17.41;72.64;98908.78;5016635;28;20099;-79
2022/07/15 02:14:20;;;;;;;3.65;3.17;;;;;;;17.43;72.91;98900.81;4988962;28;20037;-80
2022/07/15 02:16:49;;;;;;;5.68;2.72;;;;;;;17.45;72.83;98894.53;4997683;28;20041;-80
2022/07/15 02:19:18;;;;;;;4.10;2.70;;;;;;;17.56;73.08;98909.75;5003965;28;20045;-79
2022/07/15 02:21:47;;;;;;;5.30;2.90;;;;;;;17.59;72.79;98901.72;5006284;28;20065;-78
2022/07/15 02:24:14;;;;;;;3.83;2.95;;;;;;;17.57;72.77;98900.94;5006118;28;20455;-79
2022/07/15 02:26:41;;;;;;;3.75;2.63;;;;;;;17.59;72.97;98900.84;5006637;28;20033;-78
2022/07/15 02:29:07;;;;;;;3.50;2.70;;;;;;;17.56;72.69;98895.75;5023395;28;20432;-79
2022/07/15 02:31:34;;;;;;;5.43;3.30;;;;;;;17.64;72.60;98906.72;5010904;28;20393;-78
2022/07/15 02:34:01;;;;;;;4.05;2.90;;;;;;;17.70;72.65;98909.03;5002279;28;20068;-80
2022/07/15 02:36:28;;;;;;;5.78;3.22;;;;;;;17.84;72.65;98916.22;5004648;28;20068;-78
2022/07/15 02:38:55;;;;;;;5.43;2.97;;;;;;;17.91;72.68;98914.09;5023467;28;20596;-78
2022/07/15 02:41:23;;;;;;;7.72;3.28;;;;;;;17.99;72.48;98918.97;5004238;28;20103;-79
2022/07/15 02:43:50;;;;;;;7.80;2.90;;;;;;;17.96;72.45;98908.59;5006395;28;20052;-78
2022/07/15 02:46:17;;;;;;;5.00;2.90;;;;;;;17.99;72.38;98906.66;5006775;28;20034;-79
2022/07/15 02:48:44;;;;;;;4.10;2.97;;;;;;;17.96;72.24;98893.66;5000810;28;20102;-79
2022/07/15 02:51:11;;;;;;;6.38;2.83;;;;;;;17.84;72.12;98882.00;5011141;28;20049;-79
2022/07/15 02:53:39;;;;;;;3.97;3.17;;;;;;;17.97;71.94;98905.03;4989811;28;20065;-76
2022/07/15 02:56:09;;;;;;;8.50;3.15;;;;;;;17.96;72.16;98900.69;4994162;28;20100;-79
2022/07/15 02:58:36;;;;;;;4.43;2.80;;;;;;;17.89;71.87;98894.91;5020151;28;20045;-78
2022/07/15 03:01:02;;;;;;;4.03;2.70;;;;;;;18.03;71.98;98917.91;4993433;28;20033;-80
2022/07/15 03:03:31;;;;;;;3.90;3.28;;;;;;;18.10;71.86;98928.94;5004204;28;20077;-79
2022/07/15 03:05:59;;;;;;;6.32;3.40;;;;;;;18.12;71.91;98929.72;5009630;28;20033;-80
2022/07/15 03:08:25;;;;;;;5.15;3.25;;;;;;;18.08;71.30;98915.00;4991938;28;20133;-79
2022/07/15 03:10:52;;;;;;;8.50;3.53;;;;;;;17.96;71.26;98919.97;4990636;28;20062;-79
2022/07/15 03:13:18;;;;;;;4.43;3.22;;;;;;;17.98;71.36;98906.72;4991305;28;20048;-79
2022/07/15 03:15:45;;;;;;;4.68;3.13;;;;;;;18.01;71.12;98922.38;5003811;28;20426;-81
2022/07/15 03:18:12;;;;;;;5.30;2.85;;;;;;;18.02;71.15;98909.13;5008314;28;20627;-80
2022/07/15 03:20:38;;;;;;;8.63;3.55;;;;;;;18.14;71.16;98920.78;5005556;28;20043;-79
2022/07/15 03:23:04;;;;;;;6.55;2.80;;;;;;;18.26;71.42;98935.06;5007475;28;20049;-77
2022/07/15 03:25:32;;;;;;;4.90;2.55;;;;;;;18.62;71.10;98941.88;5007785;28;20086;-81
2022/07/15 03:28:03;;;;;;;;;;;;;;;18.79;70.68;98946.19;4991112;28;21446;-79
2022/07/15 03:30:34;;;;;;;3.25;2.40;;;;;;;18.96;70.15;98942.63;5009149;28;20309;-79
2022/07/15 03:33:00;;;;;;;3.70;2.10;;;;;;;19.00;69.83;98932.75;4995946;28;20147;-80
2022/07/15 03:35:27;;;;;;;5.63;2.60;;;;;;;19.16;69.49;98937.16;5020161;28;20050;-78
2022/07/15 03:37:54;;;;;;;3.70;2.60;;;;;;;19.29;68.98;98945.19;5004546;28;20044;-82
2022/07/15 03:40:20;;;;;;;2.53;2.28;;;;;;;19.44;68.87;98949.56;5001552;28;20042;-81
2022/07/15 03:42:45;;;;;;;3.17;2.05;;;;;;;19.49;68.27;98944.88;5003311;28;20378;-81
2022/07/15 03:45:12;;;;;;;2.30;2.10;;;;;;;19.49;67.94;98936.97;5003847;28;20108;-78
2022/07/15 03:47:38;;;;;;;5.25;2.30;;;;;;;19.45;67.69;98932.81;5013616;28;20087;-77
2022/07/15 03:50:09;;;;;;;3.97;2.10;;;;;;;19.49;67.46;98949.28;5009552;28;20041;-81
2022/07/15 03:52:36;;;;;;;5.55;2.30;;;;;;;19.58;67.51;98954.03;5005792;28;20188;-78
2022/07/15 03:55:06;;;;;;;3.60;2.38;;;;;;;19.71;67.50;98959.41;5003245;28;20045;-79
2022/07/15 03:57:32;;;;;;;3.88;2.47;;;;;;;19.75;67.45;98938.97;5012893;28;20167;-79
2022/07/15 03:59:59;;;;;;;3.05;2.10;;;;;;;20.04;66.79;98953.03;5021505;28;20037;-79
2022/07/15 04:02:25;;;;;;;4.75;2.45;;;;;;;20.21;66.45;98952.00;5014618;28;20223;-78
2022/07/15 04:04:52;;;;;;;4.65;2.53;;;;;;;20.21;66.14;98930.00;5001858;28;20064;-80
2022/07/15 04:07:18;;;;;;;3.03;2.30;;;;;;;20.45;65.97;98940.84;4987809;28;20523;-79
2022/07/15 04:09:44;;;;;;;3.22;2.20;;;;;;;20.69;65.51;98954.28;4986452;28;20132;-80
2022/07/15 04:12:10;;;;;;;3.58;1.90;;;;;;;20.86;65.12;98962.94;5003796;28;20048;-78
2022/07/15 04:14:39;;;;;;;3.90;1.60;;;;;;;21.06;64.69;98972.22;5004351;28;20401;-81
2022/07/15 04:17:06;;;;;;;2.30;1.70;;;;;;;21.23;64.04;98965.81;5023775;28;20037;-81
2022/07/15 04:19:35;;;;;;;2.75;1.65;;;;;;;21.43;63.92;98951.25;4992330;28;20501;-81
2022/07/15 04:22:09;;;;;;;3.33;1.55;;;;;;;21.51;62.96;98950.75;5002188;28;20083;-81
2022/07/15 04:24:40;;;;;;;2.95;1.52;;;;;;;21.62;62.88;98961.47;5003492;28;20148;-78
2022/07/15 04:27:11;;;;;;;3.23;1.40;;;;;;;21.69;62.38;98959.25;4990306;28;20116;-81
2022/07/15 04:29:37;;;;;;;5.88;1.52;;;;;;;21.79;62.13;98964.75;5021473;28;20288;-79
2022/07/15 04:32:05;;;;;;;3.17;1.60;;;;;;;21.75;61.43;98960.63;5006094;28;20045;-78
2022/07/15 04:34:35;;;;;;;4.03;1.60;;;;;;;21.79;61.08;98972.69;5024478;28;20416;-77
2022/07/15 04:37:02;;;;;;;2.28;1.50;;;;;;;21.83;60.84;98974.19;5005347;28;20105;-79
2022/07/15 04:39:29;;;;;;;2.95;1.38;;;;;;;21.87;60.66;98977.47;5009507;28;20091;-78
2022/07/15 04:41:57;;;;;;;2.35;1.50;;;;;;;21.96;60.33;98990.06;4986902;28;20045;-79
2022/07/15 04:44:23;;;;;;;4.53;1.65;;;;;;;22.06;59.77;98995.56;4988775;28;20038;-79
2022/07/15 04:46:49;;;;;;;3.80;1.65;;;;;;;22.05;59.69;98999.19;4989368;28;20047;-79
2022/07/15 04:52:16;;;;;;;2.67;1.50;;;;;;;22.17;59.21;99005.44;5023375;28;20060;-79
2022/07/15 04:54:44;;;;;;;3.22;1.38;;;;;;;22.30;58.64;98995.66;5017283;28;20082;-79
2022/07/15 04:57:14;;;;;;;1.67;1.50;;;;;;;22.54;59.04;99021.41;4974373;28;20045;-77
2022/07/15 04:59:40;;;;;;;2.15;1.58;;;;;;;22.68;58.65;99017.78;5023670;28;20042;-78
2022/07/15 05:02:11;;;;;;;4.80;1.83;;;;;;;22.69;57.57;99017.69;4993930;28;20045;-81
2022/07/15 05:04:46;;;;;;;4.10;2.30;;;;;;;22.54;57.61;99032.00;5010448;28;20053;-78
2022/07/15 05:07:14;;;;;;;4.63;2.33;;;;;;;22.47;57.74;99010.41;5010991;28;20041;-79
2022/07/15 05:09:42;;;;;;;3.65;2.00;;;;;;;22.72;57.63;99027.22;5006473;28;20045;-79
2022/07/15 05:12:08;;;;;;;3.33;1.92;;;;;;;22.89;57.58;99025.13;4988909;28;20471;-79
2022/07/15 05:14:45;;;;;;;4.38;1.70;;;;;;;23.00;57.36;99014.59;4993140;28;20172;-78
2022/07/15 05:17:11;;;;;;;2.40;1.40;;;;;;;23.08;57.00;99012.22;4990971;28;20045;-79
2022/07/15 05:19:37;;;;;;;2.95;1.60;;;;;;;23.29;56.94;99009.81;5027389;28;20037;-82
2022/07/15 05:22:04;;;;;;;2.17;1.50;;;;;;;23.29;56.54;98999.22;5012407;28;20069;-79
2022/07/15 05:24:31;;;;;;;2.78;1.50;;;;;;;23.30;56.39;98986.78;5024702;28;20045;-81
2022/07/15 05:27:00;;;;;;;2.53;1.30;;;;;;;23.42;56.44;98988.53;5008311;28;20327;-80
2022/07/15 05:29:31;;;;;;;1.85;1.58;;;;;;;23.62;56.11;98987.00;4984975;28;20142;-80
2022/07/15 05:31:57;;;;;;;2.03;1.20;;;;;;;23.82;56.05;98989.09;5011360;28;20136;-79
2022/07/15 05:34:25;;;;;;;3.50;1.58;;;;;;;24.04;55.68;98991.81;5015746;28;20053;-78
2022/07/15 05:36:52;;;;;;;1.70;1.35;;;;;;;24.26;55.34;98990.13;5009800;28;20069;-77
2022/07/15 05:39:23;;;;;;;2.08;1.30;;;;;;;24.39;54.38;98983.81;5021826;28;20056;-78
2022/07/15 05:41:53;;;;;;;1.80;1.50;;;;;;;24.46;53.78;98996.53;5011640;28;20032;-78
2022/07/15 05:44:19;;;;;;;2.85;1.50;;;;;;;24.54;54.01;98995.06;5022587;28;20117;-77
2022/07/15 05:46:50;;;;;;;2.67;1.58;;;;;;;24.61;53.58;98982.97;5020773;28;20498;-77
2022/07/15 05:49:17;;;;;;;4.45;1.80;;;;;;;24.98;53.73;98981.81;5004983;28;20068;-81
2022/07/15 05:51:44;;;;;;;4.57;1.67;;;;;;;25.46;53.40;98962.78;5000126;28;20038;-81
2022/07/15 05:54:13;;;;;;;5.10;1.88;;;;;;;26.47;52.33;98951.50;4986835;28;20037;-78
2022/07/15 05:56:42;;;;;;;2.08;1.88;;;;;;;27.49;51.65;98989.53;5005521;28;20041;-78
2022/07/15 05:59:10;;;;;;;1.75;1.48;;;;;;;29.71;50.03;98970.91;5002096;28;20046;-82
2022/07/15 06:01:37;;;;;;;1.52;1.40;;;;;;;31.69;47.25;98966.09;5003022;28;20041;-80
2022/07/15 06:04:03;;;;;;;3.42;1.40;;;;;;;33.44;43.67;98976.88;4990383;28;20042;-79
2022/07/15 06:06:29;;;;;;;2.95;1.63;;;;;;;34.54;39.49;98974.56;5001209;28;20116;-80
2022/07/15 06:08:57;;;;;;;3.30;1.50;;;;;;;35.21;37.30;98975.28;5002772;28;20061;-79
2022/07/15 06:11:24;;;;;;;4.00;1.52;;;;;;;36.02;35.11;98967.78;5005812;28;20093;-78
2022/07/15 06:13:51;;;;;;;3.35;2.15;;;;;;;36.14;34.28;98974.31;4985957;28;20038;-79
2022/07/15 06:16:17;;;;;;;1.52;1.40;;;;;;;36.80;32.80;98971.25;5004769;28;20069;-79
2022/07/15 06:18:43;;;;;;;4.50;1.75;;;;;;;38.03;32.04;98964.63;5006488;28;20041;-79
2022/07/15 06:21:11;;;;;;;2.95;1.52;;;;;;;38.72;30.06;98955.97;4982677;28;20480;-79
2022/07/15 06:23:37;;;;;;;1.55;1.40;;;;;;;39.45;29.09;98962.81;4998293;28;20050;-78
2022/07/15 06:26:04;;;;;;;2.28;1.55;;;;;;;40.18;28.85;98952.22;5001630;28;20152;-82
2022/07/15 06:28:30;;;;;;;7.53;2.03;;;;;;;40.65;27.84;98964.47;4988102;28;20456;-82
2022/07/15 06:30:57;;;;;;;3.03;1.83;;;;;;;39.04;27.54;98968.75;5001914;28;20034;-79
2022/07/15 06:33:25;;;;;;;6.93;2.10;;;;;;;38.88;27.62;98951.94;5003153;28;20038;-78
2022/07/15 06:35:51;;;;;;;2.67;1.70;;;;;;;39.61;27.06;98958.66;5021289;28;20077;-80
2022/07/15 06:38:17;;;;;;;2.85;1.80;;;;;;;40.38;26.31;98966.69;5003955;28;20057;-80
2022/07/15 06:40:45;;;;;;;4.50;1.85;;;;;;;41.22;25.70;98953.13;5020261;28;20083;-83
2022/07/15 06:43:11;;;;;;;2.17;1.75;;;;;;;41.78;25.38;98963.69;5007619;28;20092;-77
2022/07/15 06:46:08;;;;;;;7.75;1.75;;;;;;;41.41;24.58;98969.38;5007463;28;20497;-80
2022/07/15 06:48:34;;;;;;;5.70;2.10;;;;;;;40.63;24.51;98956.47;5004262;28;20045;-81
2022/07/15 06:51:00;;;;;;;6.00;1.90;;;;;;;40.11;24.17;98972.44;5000728;28;20516;-79
2022/07/15 06:53:26;;;;;;;2.22;1.65;;;;;;;39.91;24.00;98957.97;5019695;28;20056;-84
2022/07/15 06:55:52;;;;;;;3.08;1.50;;;;;;;40.04;23.78;98967.06;5007331;28;20048;-78
2022/07/15 06:58:18;;;;;;;4.40;2.00;;;;;;;39.88;23.65;98974.75;5018864;28;20095;-80
2022/07/15 07:00:44;;;;;;;3.50;1.73;;;;;;;40.18;23.80;98979.47;5023613;28;20054;-77
2022/07/15 07:03:10;;;;;;;4.30;1.75;;;;;;;40.48;22.80;98986.88;5026217;28;20037;-77
2022/07/15 07:05:39;;;;;;;4.22;1.98;;;;;;;38.64;24.23;98996.97;4991155;28;20128;-77
2022/07/15 07:08:05;;;;;;;5.68;1.80;;;;;;;39.39;23.60;98982.75;5019138;28;20041;-79
2022/07/15 07:10:31;;;;;;;2.25;1.63;;;;;;;39.84;23.15;98984.41;5023262;28;20141;-80
2022/07/15 07:13:19;;;;;;;5.47;1.83;;;;;;;40.55;22.87;98975.03;5003153;28;20056;-78
2022/07/15 07:15:44;;;;;;;4.95;1.80;;;;;;;41.16;22.44;98991.44;5021901;28;20076;-78
2022/07/15 07:18:10;;;;;;;2.95;1.65;;;;;;;40.78;22.42;98982.50;4989942;28;20040;-78
2022/07/15 07:20:37;;;;;;;2.33;1.80;;;;;;;41.14;22.32;98988.09;5022323;28;20041;-79
2022/07/15 07:23:03;;;;;;;2.83;1.50;;;;;;;41.49;21.38;99001.75;4985449;28;20037;-83
2022/07/15 07:25:33;;;;;;;2.80;1.73;;;;;;;42.18;21.65;98985.84;5025318;28;20123;-79
2022/07/15 07:28:03;;;;;;;3.58;1.85;;;;;;;42.70;21.41;98990.47;5024838;28;20037;-80
2022/07/15 07:30:32;;;;;;;3.78;1.80;;;;;;;42.54;20.97;99001.09;5005453;28;20049;-81
2022/07/15 07:32:58;;;;;;;4.10;1.70;;;;;;;42.83;20.71;98989.34;5021497;28;20140;-79
2022/07/15 07:35:25;;;;;;;3.42;1.80;;;;;;;43.06;20.38;98999.34;4995927;28;20050;-81
2022/07/15 07:37:54;;;;;;;4.22;1.80;;;;;;;43.04;20.53;98976.88;5016033;28;20113;-84
2022/07/15 07:40:20;;;;;;;14.63;2.20;;;;;;;43.74;20.02;99004.84;5036128;28;20038;-82
2022/07/15 07:42:46;;;;;;;4.40;2.10;;;;;;;43.43;19.61;99004.34;5020008;28;20224;-84
2022/07/15 07:45:12;;;;;;;3.00;1.80;;;;;;;43.49;19.67;98999.75;5040138;28;20041;-81
2022/07/15 07:47:43;;;;;;;4.40;1.55;;;;;;;43.01;19.49;99010.19;5005735;28;20045;-76
2022/07/15 07:50:09;;;;;;;4.03;1.95;;;;;;;42.42;19.91;99016.72;5008566;28;20041;-82
2022/07/15 07:52:38;;;;;;;3.25;1.60;;;;;;;42.21;19.99;99002.59;5038442;28;20051;-79
2022/07/15 07:55:09;;;;;;;2.80;1.70;;;;;;;42.45;20.16;98988.91;5018977;28;20049;-78
2022/07/15 07:57:47;;;;;;;3.92;1.80;;;;;;;42.03;19.69;99002.75;5030865;28;20037;-81
2022/07/15 08:00:13;;;;;;;3.22;1.50;;;;;;;40.49;21.24;99013.06;5045238;28;20045;-79
2022/07/15 08:02:40;;;;;;;2.53;1.70;;;;;;;38.39;21.85;99000.47;5024389;28;20041;-77
2022/07/15 08:05:08;;;;;;;5.45;1.90;;;;;;;36.57;23.46;98994.94;4988164;28;20505;-81
2022/07/15 08:07:35;;;;;;;6.07;1.80;;;;;;;35.15;24.28;99000.38;5020375;28;20042;-80
2022/07/15 08:10:03;;;;;;;3.83;1.90;;;;;;;33.94;25.96;99001.56;5012488;28;20564;-84
2022/07/15 08:12:31;;;;;;;4.95;1.80;;;;;;;33.90;26.83;98993.00;5020299;28;20056;-81
2022/07/15 08:14:57;;;;;;;7.00;1.67;;;;;;;35.67;26.33;98995.63;5003129;28;20091;-84
2022/07/15 08:17:23;;;;;;;2.42;1.70;;;;;;;37.86;24.27;98995.94;5014069;28;20038;-81
2022/07/15 08:19:50;;;;;;;2.80;1.70;;;;;;;39.57;22.53;98979.25;4979259;28;20505;-77
2022/07/15 08:22:16;;;;;;;2.10;1.40;;;;;;;40.54;21.51;98973.38;5031185;28;20045;-80
2022/07/15 08:24:42;;;;;;;4.03;1.60;;;;;;;41.05;20.55;98982.13;5014433;28;20528;-78
2022/07/15 08:27:08;;;;;;;2.88;1.60;;;;;;;41.88;20.15;98984.13;5003660;28;20052;-79
2022/07/15 08:29:35;;;;;;;2.88;1.63;;;;;;;42.62;19.99;98985.38;5011816;28;20051;-77
2022/07/15 08:32:01;;;;;;;3.08;1.70;;;;;;;42.71;19.57;99009.34;5042419;28;20155;-80
2022/07/15 08:34:28;;;;;;;3.38;2.00;;;;;;;42.30;19.39;99030.38;5024521;28;20056;-79
2022/07/15 08:36:54;;;;;;;2.10;1.50;;;;;;;41.47;19.34;99025.75;4995774;28;20053;-82
2022/07/15 08:39:20;;;;;;;2.30;1.77;;;;;;;40.01;19.85;99017.34;4996889;28;20084;-80
2022/07/15 08:41:47;;;;;;;4.05;1.70;;;;;;;39.29;20.82;99025.88;5009342;28;20044;-80
2022/07/15 08:44:13;;;;;;;3.28;1.73;;;;;;;38.72;20.96;99037.50;5030242;28;20052;-78
2022/07/15 08:46:44;;;;;;;3.22;1.80;;;;;;;37.93;21.80;99034.78;5008191;28;20037;-80
2022/07/15 08:49:14;;;;;;;4.07;2.10;;;;;;;37.86;21.99;99018.50;5029755;28;20052;-78
2022/07/15 08:51:46;;;;;;;4.60;2.20;;;;;;;38.98;21.30;99028.38;4999426;28;20083;-79
2022/07/15 08:54:14;;;;;;;2.97;1.70;;;;;;;39.60;20.82;99022.34;5001587;28;20769;-77
2022/07/15 08:56:43;;;;;;;2.65;1.75;;;;;;;39.72;20.09;99025.16;5019698;28;20061;-78
2022/07/15 08:59:09;;;;;;;2.38;1.80;;;;;;;40.38;19.58;99035.63;5001238;28;20184;-79
2022/07/15 09:01:42;;;;;;;2.33;2.00;;;;;;;41.15;19.51;99045.13;5003878;28;20037;-78
2022/07/15 09:04:09;;;;;;;1.65;1.55;;;;;;;41.17;19.56;99040.28;4998595;28;20318;-78
2022/07/15 09:06:42;;;;;;;3.83;1.80;;;;;;;41.47;18.94;99041.28;4998912;28;20034;-81
2022/07/15 09:09:25;;;;;;;5.45;1.83;;;;;;;42.45;18.25;99049.84;4998980;28;20107;-77
2022/07/15 09:12:05;;;;;;;3.60;1.70;;;;;;;42.42;18.43;99046.78;5018501;28;20588;-78
2022/07/15 09:14:34;;;;;;;3.70;1.80;;;;;;;42.12;18.33;99055.94;5018446;28;20114;-79
2022/07/15 09:17:20;;;;;;;2.53;1.70;;;;;;;42.19;18.31;99045.72;5023080;28;20140;-78
2022/07/15 09:20:12;;;;;;;2.10;1.70;;;;;;;42.92;17.28;99047.22;5004290;28;20426;-78
2022/07/15 09:22:57;;;;;;;5.38;2.00;;;;;;;41.77;17.44;99040.38;5017694;28;20104;-77
2022/07/15 09:25:24;;;;;;;3.53;1.60;;;;;;;41.66;17.83;99042.84;5020531;28;20484;-78
2022/07/15 09:27:50;;;;;;;2.97;1.90;;;;;;;41.76;17.79;99046.91;5002304;28;20048;-76
2022/07/15 09:36:11;;;;;;;3.83;1.63;;;;;;;40.13;18.67;99054.72;5017829;28;20067;-76
2022/07/15 09:38:44;;;;;;;2.28;1.50;;;;;;;40.00;18.98;99052.97;5010696;28;20050;-79
2022/07/15 09:44:33;;;;;;;3.38;1.70;;;;;;;37.27;21.18;99058.94;4990112;28;20472;-80
2022/07/15 09:47:03;;;;;;;4.43;2.08;;;;;;;38.06;21.17;99053.78;5026162;28;20033;-79
2022/07/15 09:49:32;;;;;;;2.67;1.80;;;;;;;39.22;20.04;99041.44;5003382;28;20103;-79
2022/07/15 09:52:08;;;;;;;2.80;1.65;;;;;;;39.72;19.45;99041.47;5006883;28;20590;-79
2022/07/15 09:54:37;;;;;;;2.85;1.60;;;;;;;39.68;19.54;99032.09;5007180;28;20492;-78
2022/07/15 09:57:11;;;;;;;2.25;1.60;;;;;;;39.80;18.71;99026.78;5003216;28;20041;-78
2022/07/15 09:59:38;;;;;;;4.55;1.63;;;;;;;40.01;18.84;99036.41;5023176;28;20041;-80
2022/07/15 10:02:03;;;;;;;3.25;1.60;;;;;;;39.99;18.40;99033.06;4990101;28;20044;-80
2022/07/15 10:04:31;;;;;;;4.03;1.67;;;;;;;39.86;18.65;99038.66;4976481;28;20041;-79
2022/07/15 10:07:03;;;;;;;3.38;1.80;;;;;;;39.77;18.83;99032.66;5012225;28;20075;-78
2022/07/15 10:09:32;;;;;;;3.13;1.73;;;;;;;39.63;18.99;99026.47;5032103;28;20488;-77
2022/07/15 10:12:03;;;;;;;2.47;1.40;;;;;;;39.97;18.61;99037.09;5000083;28;20057;-80
2022/07/15 10:15:11;;;;;;;2.72;1.48;;;;;;;40.05;18.94;99040.34;5013096;28;20038;-80
2022/07/15 10:18:19;;;;;;;2.60;1.65;;;;;;;39.46;18.73;99031.63;4992622;28;20080;-83
2022/07/15 10:20:51;;;;;;;1.70;1.33;;;;;;;37.23;20.19;99046.84;5020581;28;20413;-79
2022/07/15 10:23:22;;;;;;;3.30;1.50;;;;;;;35.16;21.58;99052.56;5004093;28;20139;-80
2022/07/15 10:26:10;;;;;;;2.80;1.80;;;;;;;34.11;22.93;99053.47;5021310;28;20042;-82
2022/07/15 10:29:09;;;;;;;1.88;1.77;;;;;;;34.46;22.95;99059.19;5005927;28;20061;-81
2022/07/15 10:31:40;;;;;;;4.57;2.00;;;;;;;34.01;23.47;99063.72;5005115;28;20503;-79
2022/07/15 10:34:13;;;;;;;6.38;1.70;;;;;;;33.46;23.87;99064.66;5019285;28;20157;-78
2022/07/15 10:36:49;;;;;;;3.33;1.90;;;;;;;32.83;24.34;99072.78;5020998;28;20033;-78
2022/07/15 10:39:17;;;;;;;2.25;1.60;;;;;;;32.27;25.05;99070.09;5003847;28;20041;-79
2022/07/15 10:41:58;;;;;;;2.35;1.70;;;;;;;31.98;25.59;99068.75;5003600;28;20504;-80
2022/07/15 10:44:35;;;;;;;;;;;;;;;31.78;26.11;99066.44;4987286;28;20343;-80
2022/07/15 10:47:13;;;;;;;3.00;1.60;;;;;;;31.54;26.80;99078.84;5024771;28;19917;-81
2022/07/15 10:49:44;;;;;;;3.60;1.70;;;;;;;31.42;26.56;99061.38;5021076;28;20754;-81
2022/07/15 10:52:19;;;;;;;4.15;1.88;;;;;;;31.28;27.05;99057.50;5010519;28;20143;-82
2022/07/15 10:54:56;;;;;;;2.45;1.60;;;;;;;30.68;27.20;99063.84;5022298;28;20038;-80
2022/07/15 10:57:40;;;;;;;5.57;4.10;;;;;;;30.34;27.84;99077.03;4989413;28;20050;-80
2022/07/15 11:00:26;;;;;;;6.20;4.55;;;;;;;29.91;28.46;99071.56;4989251;28;20053;-78
2022/07/15 11:03:07;;;;;;;9.30;7.35;;;;;;;29.85;28.64;99084.75;5020190;28;20092;-82
2022/07/15 11:05:34;;;;;;;5.15;3.05;;;;;;;29.55;28.69;99076.13;4999289;28;20045;-83
2022/07/15 11:08:00;;;;;;;4.65;4.13;;;;;;;29.24;29.46;99082.66;5020542;28;20048;-80
2022/07/15 11:10:27;;;;;;;7.78;4.70;;;;;;;28.96;30.29;99082.69;5007301;28;20096;-81
2022/07/15 11:12:53;;;;;;;3.33;2.08;;;;;;;28.61;30.13;99083.41;5023229;28;20517;-79
2022/07/15 11:15:23;;;;;;;4.93;2.90;;;;;;;28.35;30.46;99087.59;5013206;28;20037;-80
2022/07/15 11:17:52;;;;;;;11.23;4.75;;;;;;;28.26;30.29;99083.09;5022187;28;20045;-77
2022/07/15 11:20:27;;;;;;;3.47;2.22;;;;;;;28.34;30.71;99077.88;5009414;28;20117;-80
2022/07/15 11:22:56;;;;;;;4.75;2.90;;;;;;;28.19;30.75;99064.13;5009522;28;20044;-77
2022/07/15 11:25:40;;;;;;;7.88;3.47;;;;;;;28.06;31.12;99074.28;5008399;28;20041;-79
2022/07/15 11:28:29;;;;;;;3.97;2.75;;;;;;;27.80;31.39;99089.09;5008417;28;20050;-80
2022/07/15 11:30:57;;;;;;;8.93;4.40;;;;;;;27.57;31.48;99082.34;5012180;28;20049;-79
2022/07/15 11:33:29;;;;;;;7.38;3.80;;;;;;;27.29;31.44;99077.63;5025669;28;20053;-80
2022/07/15 11:36:02;;;;;;;4.35;2.50;;;;;;;27.17;32.22;99084.94;5005043;28;20350;-79
2022/07/15 11:38:38;;;;;;;9.07;5.20;;;;;;;27.13;32.43;99083.53;5005703;28;20064;-80
2022/07/15 11:46:48;;;;;;;6.63;3.70;;;;;;;27.00;33.39;99098.94;5008293;28;20406;-80
2022/07/15 11:49:39;;;;;;;5.80;2.47;;;;;;;26.94;33.28;99100.34;5017794;28;20489;-83
2022/07/15 11:52:07;;;;;;;3.38;2.35;;;;;;;26.91;33.34;99100.63;5015307;28;20772;-78
2022/07/15 11:54:39;;;;;;;5.93;3.20;;;;;;;26.97;33.95;99107.22;5005072;28;20045;-79
2022/07/15 11:57:08;;;;;;;4.90;1.95;;;;;;;26.92;34.17;99103.13;5003671;28;21485;-82
2022/07/15 11:59:35;;;;;;;3.78;2.28;;;;;;;26.97;34.50;99097.41;5002027;28;20179;-82
2022/07/15 12:02:14;;;;;;;7.57;5.40;;;;;;;26.97;34.31;99105.41;5023225;28;20042;-78